Albany Center, Vermont
Current Conditions -  °F | °C
As of 3:35 AM on Saturday 20 Dec 2014 (Local Time) from KEFK Reporting Station
Clear Clear  
Wind Chill: -15°   Ceiling: Unl
Heat Index: -15°   Visibility: 10mi
Dew Point: -17°   Wind: 3mph
Humidity: 88%   Direction: 210°SSW
Pressure: 30.23"   Gusts: NA
Location:  44.8143°N, 72.284°W
Report Text: KEFK 200835Z AUTO 21003KT 10SM CLR M15/M17 A3023 RMK AO2 T11531169
Loading
Personal Weather Stations






























Interactive Weather Map New forecast layout! Learn more

10-Day Weather Forecast

Advertisements
Track Severe Weather on mobile